Time;durP1;ratioP1;P1;durP2;ratioP2;P2;SDS_P1;SDS_P2;PMS_P1;PMS_P2;Temp;Humidity;BMP_temperature;BMP_pressure;BME280_temperature;BME280_humidity;BME280_pressure;Samples;Min_cycle;Max_cycle;Signal;HPM_P1;HPM_P2
2021/07/05 00:00:18;;;;;;;58.27;2.70;;;15.80;36.00;;;;;;5054921;28;20541;-70
2021/07/05 00:02:45;;;;;;;58.70;2.80;;;15.80;36.70;;;;;;5053898;28;20461;-70
2021/07/05 00:05:15;;;;;;;58.30;2.83;;;15.80;37.00;;;;;;5054436;28;20554;-70
2021/07/05 00:07:46;;;;;;;58.57;2.80;;;15.90;36.90;;;;;;5054445;28;20534;-70
2021/07/05 00:10:14;;;;;;;58.37;2.60;;;15.80;35.90;;;;;;5054394;28;20541;-70
2021/07/05 00:12:45;;;;;;;58.37;2.60;;;15.80;39.00;;;;;;5053901;28;20487;-71
2021/07/05 00:15:12;;;;;;;57.90;2.60;;;15.90;39.10;;;;;;5054173;28;20463;-70
2021/07/05 00:17:39;;;;;;;58.23;2.70;;;15.90;40.60;;;;;;5054008;28;20489;-70
2021/07/05 00:20:08;;;;;;;58.30;2.70;;;15.90;40.40;;;;;;5053995;28;20536;-68
2021/07/05 00:22:36;;;;;;;58.37;2.70;;;15.90;39.90;;;;;;5053423;28;21202;-71
2021/07/05 00:25:05;;;;;;;58.37;2.50;;;15.90;40.00;;;;;;5054238;28;20470;-70
2021/07/05 00:27:33;;;;;;;58.33;2.70;;;15.90;39.70;;;;;;5053979;28;20538;-70
2021/07/05 00:30:00;;;;;;;58.40;2.90;;;15.90;41.60;;;;;;5054201;28;20869;-70
2021/07/05 00:32:26;;;;;;;58.30;2.60;;;15.90;44.50;;;;;;5053466;28;20524;-70
2021/07/05 00:34:53;;;;;;;58.47;2.70;;;15.90;44.70;;;;;;5053766;28;20553;-70
2021/07/05 00:37:20;;;;;;;58.40;2.63;;;15.90;45.60;;;;;;5053644;28;20537;-70
2021/07/05 00:39:48;;;;;;;58.40;2.83;;;15.90;46.50;;;;;;5054024;28;20532;-70
2021/07/05 00:42:15;;;;;;;58.23;2.83;;;15.90;46.20;;;;;;5053619;28;20629;-70
2021/07/05 00:44:42;;;;;;;58.23;2.73;;;15.90;47.80;;;;;;5053675;28;20469;-70
2021/07/05 00:47:09;;;;;;;58.00;2.70;;;16.00;47.10;;;;;;5053738;28;20861;-70
2021/07/05 00:49:36;;;;;;;58.23;2.97;;;16.00;46.40;;;;;;5053577;28;21013;-70
2021/07/05 00:52:04;;;;;;;58.27;2.60;;;16.00;46.90;;;;;;5053511;28;20481;-70
2021/07/05 00:54:31;;;;;;;58.40;2.70;;;16.00;51.20;;;;;;5053507;28;20576;-70
2021/07/05 00:56:59;;;;;;;58.40;2.60;;;16.00;51.20;;;;;;5053539;28;20541;-70
2021/07/05 00:59:26;;;;;;;58.23;2.60;;;16.00;53.10;;;;;;5053565;28;20881;-70
2021/07/05 01:01:53;;;;;;;58.00;2.67;;;16.00;52.10;;;;;;5053482;28;20457;-70
2021/07/05 01:04:20;;;;;;;58.30;2.70;;;16.00;50.60;;;;;;5053744;28;20489;-70
2021/07/05 01:06:47;;;;;;;58.40;2.80;;;16.00;49.80;;;;;;5053589;28;20486;-70
2021/07/05 01:09:14;;;;;;;58.17;2.80;;;16.00;51.80;;;;;;5053702;28;20453;-70
2021/07/05 01:11:41;;;;;;;57.90;2.80;;;16.00;54.00;;;;;;5053079;28;20448;-71
2021/07/05 01:14:09;;;;;;;58.67;3.07;;;16.00;55.10;;;;;;5052548;28;20530;-70
2021/07/05 01:16:36;;;;;;;58.17;2.80;;;16.00;56.40;;;;;;5052961;28;20941;-70
2021/07/05 01:19:03;;;;;;;58.47;2.77;;;16.00;56.80;;;;;;5052994;28;20540;-70
2021/07/05 01:21:31;;;;;;;58.47;2.80;;;16.10;56.90;;;;;;5053050;28;20540;-70
2021/07/05 01:23:58;;;;;;;58.27;2.80;;;16.10;54.60;;;;;;5053103;28;20512;-70
2021/07/05 01:26:25;;;;;;;58.37;2.80;;;16.00;54.20;;;;;;5053109;28;20533;-70
2021/07/05 01:28:52;;;;;;;58.43;2.50;;;16.00;51.40;;;;;;5052879;28;20545;-70
2021/07/05 01:31:19;;;;;;;57.97;2.67;;;16.10;50.00;;;;;;5052439;28;20509;-70
2021/07/05 01:33:46;;;;;;;58.37;2.80;;;16.10;50.10;;;;;;5052987;28;20499;-70
2021/07/05 01:36:13;;;;;;;58.23;2.90;;;16.10;51.20;;;;;;5052709;28;20485;-70
2021/07/05 01:38:43;;;;;;;58.47;2.83;;;16.10;50.60;;;;;;5053055;28;20450;-70
2021/07/05 01:41:10;;;;;;;58.33;2.60;;;16.10;51.60;;;;;;5052911;28;20450;-70
2021/07/05 01:43:38;;;;;;;58.27;3.00;;;16.10;53.50;;;;;;5052260;28;20466;-71
2021/07/05 01:46:05;;;;;;;58.23;2.60;;;16.10;52.00;;;;;;5052457;28;20446;-70
2021/07/05 01:48:32;;;;;;;58.20;2.80;;;16.10;52.30;;;;;;5052785;28;20832;-70
2021/07/05 01:50:59;;;;;;;58.17;2.70;;;16.10;52.00;;;;;;5052563;28;20541;-70
2021/07/05 01:53:26;;;;;;;58.27;2.90;;;16.10;51.20;;;;;;5052121;28;20572;-70
2021/07/05 01:55:54;;;;;;;58.70;2.97;;;16.10;55.00;;;;;;5052825;28;20544;-70
2021/07/05 01:58:21;;;;;;;58.47;3.03;;;16.10;54.40;;;;;;5052402;28;20452;-70
2021/07/05 02:00:49;;;;;;;58.37;2.80;;;16.10;54.20;;;;;;5052223;28;20541;-70
2021/07/05 02:03:18;;;;;;;58.20;2.60;;;16.10;51.70;;;;;;5052106;28;20556;-70
2021/07/05 02:05:46;;;;;;;58.10;2.60;;;16.10;50.80;;;;;;5052320;28;20488;-70
2021/07/05 02:08:13;;;;;;;58.60;3.00;;;16.10;49.20;;;;;;5052275;28;20488;-70
2021/07/05 02:10:42;;;;;;;58.37;2.60;;;16.10;49.10;;;;;;5052413;28;20533;-70
2021/07/05 02:13:14;;;;;;;58.17;2.70;;;16.10;47.30;;;;;;5051897;28;20570;-70
2021/07/05 02:15:42;;;;;;;58.17;2.70;;;16.20;45.40;;;;;;5052688;28;20541;-70
2021/07/05 02:18:10;;;;;;;58.23;2.70;;;16.20;46.10;;;;;;5052211;28;20545;-70
2021/07/05 02:20:37;;;;;;;58.07;2.80;;;16.20;45.10;;;;;;5052115;28;20814;-70
2021/07/05 02:23:06;;;;;;;58.40;2.90;;;16.20;40.40;;;;;;5052037;28;20853;-70
2021/07/05 02:25:33;;;;;;;58.10;2.83;;;16.20;38.50;;;;;;5051782;28;20451;-70
2021/07/05 02:28:06;;;;;;;58.30;2.60;;;16.10;38.70;;;;;;5051934;28;20996;-70
2021/07/05 02:30:34;;;;;;;58.27;2.90;;;16.10;41.90;;;;;;5052180;28;20527;-70
2021/07/05 02:33:02;;;;;;;58.40;2.80;;;16.10;44.60;;;;;;5051966;28;20466;-70
2021/07/05 02:35:30;;;;;;;58.50;2.50;;;16.10;44.40;;;;;;5051967;28;20489;-70
2021/07/05 02:37:58;;;;;;;58.20;2.70;;;16.20;42.70;;;;;;5052000;28;20453;-70
2021/07/05 02:40:28;;;;;;;58.50;2.70;;;16.10;44.20;;;;;;5051684;28;20528;-70
2021/07/05 02:42:55;;;;;;;58.13;2.70;;;16.20;41.80;;;;;;5051506;28;20445;-70
2021/07/05 02:45:25;;;;;;;58.27;2.70;;;16.20;37.60;;;;;;5052525;28;20450;-70
2021/07/05 02:47:56;;;;;;;58.17;2.50;;;16.20;38.70;;;;;;5052367;28;20545;-70
2021/07/05 02:50:23;;;;;;;58.37;2.70;;;16.20;38.00;;;;;;5051825;28;20444;-70
2021/07/05 02:52:50;;;;;;;58.27;2.90;;;16.20;37.10;;;;;;5051351;28;20504;-70
2021/07/05 02:55:17;;;;;;;57.80;2.60;;;16.20;36.20;;;;;;5051890;28;20485;-70
2021/07/05 02:57:44;;;;;;;58.27;2.60;;;16.20;35.20;;;;;;5051806;28;20523;-70
2021/07/05 03:00:14;;;;;;;58.20;2.70;;;16.30;36.70;;;;;;5051974;28;20457;-70
2021/07/05 03:02:41;;;;;;;58.20;2.70;;;16.30;37.00;;;;;;5051299;28;21011;-70
2021/07/05 03:05:11;;;;;;;58.13;2.60;;;16.30;36.10;;;;;;5051763;28;20942;-69
2021/07/05 03:07:39;;;;;;;58.13;2.53;;;16.30;36.60;;;;;;5052078;28;20459;-70
2021/07/05 03:10:08;;;;;;;58.27;2.60;;;16.30;35.70;;;;;;5052114;28;20532;-70
2021/07/05 03:12:35;;;;;;;58.47;2.97;;;16.30;34.80;;;;;;5051744;28;20834;-70
2021/07/05 03:15:02;;;;;;;57.80;2.73;;;16.40;35.90;;;;;;5051544;28;20581;-70
2021/07/05 03:17:28;;;;;;;57.77;2.60;;;16.40;34.90;;;;;;5051651;28;20829;-70
2021/07/05 03:19:55;;;;;;;58.23;2.50;;;16.40;35.00;;;;;;5051811;28;20464;-70
2021/07/05 03:22:23;;;;;;;57.83;2.60;;;16.40;36.60;;;;;;5051478;28;20559;-69
2021/07/05 03:24:50;;;;;;;58.27;2.53;;;16.40;37.80;;;;;;5051546;28;20471;-70
2021/07/05 03:27:17;;;;;;;58.23;2.67;;;16.40;39.00;;;;;;5051404;28;20535;-70
2021/07/05 03:29:44;;;;;;;58.17;2.60;;;16.40;42.70;;;;;;5051446;28;20457;-70
2021/07/05 03:32:11;;;;;;;58.10;2.60;;;16.40;41.70;;;;;;5051326;28;21025;-70
2021/07/05 03:34:38;;;;;;;58.07;2.73;;;16.40;35.00;;;;;;5051695;28;20490;-70
2021/07/05 03:37:05;;;;;;;58.40;2.60;;;16.40;33.00;;;;;;5051921;28;20538;-70
2021/07/05 03:39:33;;;;;;;58.23;2.67;;;16.40;31.60;;;;;;5054962;28;20525;-70
2021/07/05 03:42:00;;;;;;;58.20;2.53;;;16.40;30.20;;;;;;5055367;28;20541;-70
2021/07/05 03:44:28;;;;;;;58.37;2.70;;;16.40;32.30;;;;;;5055700;28;20500;-70
2021/07/05 03:46:55;;;;;;;58.07;2.60;;;16.40;31.90;;;;;;5055562;28;20533;-70
2021/07/05 03:49:22;;;;;;;58.07;2.70;;;16.50;31.20;;;;;;5055571;28;20450;-70
2021/07/05 03:51:49;;;;;;;58.27;2.57;;;16.50;29.60;;;;;;5054522;28;21032;-70
2021/07/05 03:54:17;;;;;;;58.03;2.50;;;16.50;27.40;;;;;;5054780;28;20485;-69
2021/07/05 03:56:45;;;;;;;58.10;2.50;;;16.50;25.60;;;;;;5054647;28;20450;-70
2021/07/05 03:59:12;;;;;;;58.17;2.70;;;16.50;23.80;;;;;;5054262;28;20834;-70
2021/07/05 04:01:39;;;;;;;58.30;2.60;;;16.50;23.00;;;;;;5054208;28;20490;-70
2021/07/05 04:04:06;;;;;;;57.87;2.60;;;16.50;22.80;;;;;;5054459;28;20505;-69
2021/07/05 04:06:33;;;;;;;58.30;2.40;;;16.50;24.20;;;;;;5054722;28;20482;-70
2021/07/05 04:09:02;;;;;;;58.37;2.73;;;16.50;23.90;;;;;;5054594;28;20539;-70
2021/07/05 04:11:30;;;;;;;58.07;2.50;;;16.50;23.80;;;;;;5054823;28;20455;-69
2021/07/05 04:13:58;;;;;;;57.87;2.40;;;16.50;24.00;;;;;;5054826;28;20585;-70
2021/07/05 04:16:26;;;;;;;57.67;2.50;;;16.50;23.20;;;;;;5055073;28;20906;-70
2021/07/05 04:18:53;;;;;;;57.50;2.47;;;16.50;20.20;;;;;;5055300;28;20883;-69
2021/07/05 04:21:22;;;;;;;58.27;2.57;;;16.40;19.70;;;;;;5054943;28;20468;-69
2021/07/05 04:23:49;;;;;;;58.30;2.70;;;16.50;17.10;;;;;;5054738;28;20569;-70
2021/07/05 04:26:16;;;;;;;57.93;2.40;;;16.50;14.70;;;;;;5054855;28;20508;-70
2021/07/05 04:28:43;;;;;;;58.17;2.57;;;16.50;12.80;;;;;;5055294;28;20447;-70
2021/07/05 04:31:11;;;;;;;58.17;2.50;;;16.50;11.60;;;;;;5055129;28;20533;-70
2021/07/05 04:33:38;;;;;;;57.87;2.40;;;16.60;8.70;;;;;;5054423;28;20557;-70
2021/07/05 04:36:05;;;;;;;57.90;2.43;;;16.60;8.50;;;;;;5054536;28;20485;-70
2021/07/05 04:38:32;;;;;;;58.10;3.00;;;16.60;8.40;;;;;;5054736;28;20537;-70
2021/07/05 04:41:02;;;;;;;58.07;2.70;;;16.60;7.70;;;;;;5054256;28;20489;-69
2021/07/05 04:43:29;;;;;;;58.33;2.53;;;16.60;9.20;;;;;;5054683;28;20477;-70
2021/07/05 04:46:02;;;;;;;58.03;2.50;;;16.60;9.60;;;;;;5054681;28;20454;-70
2021/07/05 04:48:31;;;;;;;58.23;2.50;;;16.70;9.00;;;;;;5054509;28;20455;-70
2021/07/05 04:50:57;;;;;;;58.17;2.90;;;16.70;8.50;;;;;;5054094;28;20494;-70
2021/07/05 04:53:25;;;;;;;58.10;2.30;;;16.80;9.30;;;;;;5054102;28;20856;-70
2021/07/05 04:55:53;;;;;;;57.97;2.50;;;16.80;11.30;;;;;;5053892;28;20453;-70
2021/07/05 04:58:21;;;;;;;58.17;2.90;;;16.90;8.50;;;;;;5054134;28;20828;-70
2021/07/05 05:00:48;;;;;;;58.10;2.40;;;17.00;6.70;;;;;;5054389;28;20453;-70
2021/07/05 05:03:15;;;;;;;58.17;2.40;;;17.00;7.20;;;;;;5053611;28;21054;-70
2021/07/05 05:05:44;;;;;;;58.10;2.70;;;17.00;3.90;;;;;;5053885;28;20443;-70
2021/07/05 05:08:11;;;;;;;58.07;2.60;;;17.10;1.00;;;;;;5053906;28;20702;-70
2021/07/05 05:10:40;;;;;;;58.17;2.50;;;17.10;1.00;;;;;;5053845;28;20531;-70
2021/07/05 05:13:07;;;;;;;58.00;2.50;;;17.10;1.00;;;;;;5053558;28;20467;-70
2021/07/05 05:15:34;;;;;;;58.27;2.60;;;17.20;1.00;;;;;;5053409;28;20862;-69
2021/07/05 05:18:01;;;;;;;58.10;2.53;;;17.30;1.00;;;;;;5053696;28;20724;-70
2021/07/05 05:20:28;;;;;;;58.07;2.40;;;17.40;1.00;;;;;;5053145;28;20451;-70
2021/07/05 05:22:56;;;;;;;57.97;2.50;;;17.40;1.00;;;;;;5052797;28;20509;-70
2021/07/05 05:25:24;;;;;;;58.07;2.80;;;17.40;1.00;;;;;;5052942;28;20530;-70
2021/07/05 05:27:51;;;;;;;58.20;2.70;;;17.40;1.00;;;;;;5052676;28;20462;-69
2021/07/05 05:30:20;;;;;;;58.17;2.60;;;17.50;1.00;;;;;;5052730;28;20462;-70
2021/07/05 05:32:48;;;;;;;58.17;2.53;;;17.50;1.00;;;;;;5052342;28;20804;-70
2021/07/05 05:35:16;;;;;;;57.90;2.67;;;17.60;1.00;;;;;;5052263;28;20517;-70
2021/07/05 05:37:43;;;;;;;58.30;2.50;;;17.70;1.00;;;;;;5052587;28;20989;-70
2021/07/05 05:40:13;;;;;;;58.03;2.40;;;17.70;1.00;;;;;;5052715;28;20535;-70
2021/07/05 05:42:40;;;;;;;58.17;2.63;;;17.80;1.00;;;;;;5052104;28;20646;-71
2021/07/05 05:45:08;;;;;;;57.90;2.40;;;17.90;1.00;;;;;;5052416;28;20939;-69
2021/07/05 05:47:35;;;;;;;58.10;2.50;;;17.90;1.00;;;;;;5052274;28;20543;-70
2021/07/05 05:50:02;;;;;;;58.07;2.50;;;18.00;1.00;;;;;;5052537;28;20451;-71
2021/07/05 05:52:28;;;;;;;58.27;2.20;;;18.00;1.00;;;;;;5052646;28;20529;-70
2021/07/05 05:54:55;;;;;;;57.77;2.40;;;18.10;1.00;;;;;;5052271;28;20932;-70
2021/07/05 05:57:27;;;;;;;58.07;2.57;;;18.10;1.00;;;;;;5052418;28;20538;-70
2021/07/05 05:59:56;;;;;;;58.20;2.30;;;18.10;1.00;;;;;;5052900;28;20935;-70
2021/07/05 06:02:23;;;;;;;58.07;2.50;;;18.10;1.00;;;;;;5052301;28;20535;-70
2021/07/05 06:04:49;;;;;;;57.80;2.27;;;18.10;1.00;;;;;;5053153;28;20555;-70
2021/07/05 06:07:16;;;;;;;57.77;2.30;;;18.10;1.00;;;;;;5052612;28;20550;-69
2021/07/05 06:09:44;;;;;;;57.50;2.33;;;18.10;1.00;;;;;;5052323;28;20529;-70
2021/07/05 06:12:11;;;;;;;58.20;2.30;;;18.10;1.00;;;;;;5052548;28;20506;-70
2021/07/05 06:14:39;;;;;;;57.83;2.20;;;18.10;1.00;;;;;;5052781;28;21006;-70
2021/07/05 06:17:06;;;;;;;58.17;2.30;;;18.10;1.00;;;;;;5052592;28;20494;-70
2021/07/05 06:19:33;;;;;;;57.83;2.27;;;18.10;1.00;;;;;;5052380;28;20546;-70
2021/07/05 06:22:01;;;;;;;57.77;2.30;;;18.10;1.00;;;;;;5051613;28;20544;-70
2021/07/05 06:24:28;;;;;;;57.97;2.33;;;18.20;1.00;;;;;;5051799;28;20464;-70
2021/07/05 06:26:55;;;;;;;58.07;2.30;;;18.20;1.00;;;;;;5052014;28;20550;-70
2021/07/05 06:29:22;;;;;;;57.97;2.87;;;18.30;1.00;;;;;;5051800;28;20588;-70
2021/07/05 06:31:50;;;;;;;57.87;2.40;;;18.30;1.00;;;;;;5052155;28;20819;-70
2021/07/05 06:34:17;;;;;;;58.07;2.33;;;18.30;1.00;;;;;;5051991;28;20555;-69
2021/07/05 06:36:43;;;;;;;57.93;2.23;;;18.30;1.00;;;;;;5051844;28;20494;-70
2021/07/05 06:39:10;;;;;;;57.97;2.40;;;18.30;1.00;;;;;;5052045;28;20451;-70
2021/07/05 06:41:37;;;;;;;57.93;2.40;;;18.30;1.00;;;;;;5051674;28;20727;-70
2021/07/05 06:44:04;;;;;;;58.03;2.53;;;18.20;1.00;;;;;;5051960;28;20570;-70
2021/07/05 06:46:31;;;;;;;58.30;2.40;;;18.10;1.00;;;;;;5052199;28;20537;-70
2021/07/05 06:48:59;;;;;;;58.07;2.50;;;18.00;1.00;;;;;;5051746;28;20446;-70
2021/07/05 06:51:26;;;;;;;57.93;2.60;;;18.00;1.00;;;;;;5051553;28;20539;-70
2021/07/05 06:53:53;;;;;;;57.87;2.50;;;18.00;1.00;;;;;;5052068;28;20511;-70
2021/07/05 06:56:20;;;;;;;57.97;2.50;;;18.00;1.00;;;;;;5052022;28;20522;-70
2021/07/05 06:58:47;;;;;;;57.90;2.50;;;18.00;1.00;;;;;;5052057;28;20534;-70
2021/07/05 07:01:14;;;;;;;58.30;3.17;;;18.10;1.00;;;;;;5051925;28;20448;-70
2021/07/05 07:03:40;;;;;;;58.00;2.57;;;18.20;1.00;;;;;;5052808;28;20525;-70
2021/07/05 07:06:09;;;;;;;58.37;2.83;;;18.20;1.00;;;;;;5053414;28;20444;-70
2021/07/05 07:08:36;;;;;;;57.67;2.30;;;18.20;1.00;;;;;;5053066;28;20483;-70
2021/07/05 07:11:02;;;;;;;58.20;2.20;;;18.30;1.00;;;;;;5052953;28;20872;-70
2021/07/05 07:13:29;;;;;;;57.97;2.27;;;18.30;1.00;;;;;;5054564;28;20976;-70
2021/07/05 07:15:58;;;;;;;58.10;2.20;;;18.20;1.00;;;;;;5057082;28;21073;-70
2021/07/05 07:21:11;;;;;;;57.77;2.23;;;18.30;1.00;;;;;;5056060;28;20470;-70
2021/07/05 07:23:38;;;;;;;57.73;2.30;;;18.30;1.00;;;;;;5054879;28;20830;-70
2021/07/05 07:26:05;;;;;;;57.47;2.20;;;18.30;1.00;;;;;;5055502;28;20879;-70
2021/07/05 07:28:32;;;;;;;57.80;2.43;;;18.30;1.00;;;;;;5055249;28;20447;-71
2021/07/05 07:30:58;;;;;;;57.97;2.60;;;18.30;1.00;;;;;;5055107;28;20494;-70
2021/07/05 07:33:25;;;;;;;57.67;2.23;;;18.30;1.00;;;;;;5054754;28;20502;-70
2021/07/05 07:35:53;;;;;;;57.73;2.40;;;18.30;1.00;;;;;;5054855;28;20563;-71
2021/07/05 07:38:23;;;;;;;57.37;2.57;;;18.30;1.00;;;;;;5055068;28;20882;-70
2021/07/05 07:40:49;;;;;;;58.07;2.40;;;18.30;1.00;;;;;;5055219;28;20451;-70
2021/07/05 07:43:16;;;;;;;58.30;2.30;;;18.30;1.00;;;;;;5054655;28;20490;-70
2021/07/05 07:45:43;;;;;;;57.90;2.20;;;18.30;1.00;;;;;;5054963;28;20451;-70
2021/07/05 07:48:10;;;;;;;57.80;2.40;;;18.40;1.00;;;;;;5055069;28;20453;-70
2021/07/05 07:50:37;;;;;;;58.00;2.80;;;18.40;1.00;;;;;;5054765;28;20457;-70
2021/07/05 07:53:04;;;;;;;57.73;2.30;;;18.40;1.00;;;;;;5054385;28;20510;-70
2021/07/05 07:55:32;;;;;;;58.17;2.40;;;18.40;1.00;;;;;;5054750;28;20920;-70
2021/07/05 07:57:59;;;;;;;57.77;2.40;;;18.40;1.00;;;;;;5054972;28;20538;-70
2021/07/05 08:00:29;;;;;;;58.10;2.17;;;18.50;1.00;;;;;;5055183;28;20444;-70
2021/07/05 08:02:56;;;;;;;57.90;2.40;;;18.50;1.00;;;;;;5054725;28;20478;-70
2021/07/05 08:05:23;;;;;;;57.93;2.30;;;18.60;1.00;;;;;;5054524;28;20536;-70
2021/07/05 08:07:50;;;;;;;57.67;2.70;;;18.60;1.00;;;;;;5054375;28;20479;-70
2021/07/05 08:10:18;;;;;;;58.07;2.83;;;18.60;1.00;;;;;;5054571;28;20451;-70
2021/07/05 08:12:47;;;;;;;57.77;2.63;;;18.70;1.00;;;;;;5055428;28;20510;-70
2021/07/05 08:15:16;;;;;;;58.37;2.53;;;18.80;1.00;;;;;;5054643;28;20591;-71
2021/07/05 08:17:43;;;;;;;57.67;2.67;;;18.90;1.00;;;;;;5057230;28;20452;-71
2021/07/05 08:20:11;;;;;;;58.40;2.50;;;18.90;1.00;;;;;;5057175;28;20452;-71
2021/07/05 08:22:39;;;;;;;57.73;2.60;;;19.00;1.00;;;;;;5055713;28;20536;-71
2021/07/05 08:25:07;;;;;;;57.63;2.20;;;19.00;1.00;;;;;;5055692;28;20546;-71
2021/07/05 08:27:34;;;;;;;58.07;2.30;;;18.90;1.00;;;;;;5055215;28;20951;-70
2021/07/05 08:30:04;;;;;;;57.97;2.47;;;18.90;1.00;;;;;;5054032;28;20456;-71
2021/07/05 08:32:31;;;;;;;57.80;2.47;;;18.80;1.00;;;;;;5054005;28;20653;-71
2021/07/05 08:34:58;;;;;;;57.97;2.27;;;18.80;1.00;;;;;;5054177;28;20542;-71
2021/07/05 08:37:25;;;;;;;57.63;2.13;;;18.90;1.00;;;;;;5053766;28;20458;-71
2021/07/05 08:39:52;;;;;;;57.83;2.20;;;19.00;1.00;;;;;;5053823;28;20535;-71
2021/07/05 08:42:24;;;;;;;57.97;2.50;;;19.10;1.00;;;;;;5053355;28;20535;-71
2021/07/05 08:44:50;;;;;;;57.87;2.67;;;19.10;1.00;;;;;;5053460;28;20471;-71
2021/07/05 08:47:20;;;;;;;57.83;2.47;;;19.20;1.00;;;;;;5054049;28;20450;-71
2021/07/05 08:49:47;;;;;;;57.40;2.30;;;19.30;1.00;;;;;;5054037;28;20494;-71
2021/07/05 08:52:13;;;;;;;58.07;2.50;;;19.40;1.00;;;;;;5053409;28;20453;-71
2021/07/05 08:54:40;;;;;;;58.07;3.00;;;19.50;1.00;;;;;;5053556;28;20468;-71
2021/07/05 08:57:26;;;;;;;58.30;2.77;;;19.60;1.00;;;;;;5054084;28;20562;-70
2021/07/05 08:59:53;;;;;;;58.10;2.60;;;19.60;1.00;;;;;;5054227;28;20455;-70
2021/07/05 09:02:22;;;;;;;58.10;2.40;;;19.70;1.00;;;;;;5054376;28;20451;-71
2021/07/05 09:04:49;;;;;;;58.10;2.60;;;19.60;1.00;;;;;;5054044;28;20501;-70
2021/07/05 09:07:17;;;;;;;57.83;2.60;;;19.60;1.00;;;;;;5054732;28;20528;-72
2021/07/05 09:09:58;;;;;;;57.97;2.40;;;19.50;1.00;;;;;;5053768;28;20450;-71
2021/07/05 09:12:26;;;;;;;57.40;2.40;;;19.40;1.00;;;;;;5053502;28;20534;-71
2021/07/05 09:15:09;;;;;;;58.03;2.30;;;19.40;1.00;;;;;;5053126;28;20514;-71
2021/07/05 09:17:38;;;;;;;57.83;2.50;;;19.40;1.00;;;;;;5053053;28;20500;-71
2021/07/05 09:20:19;;;;;;;57.67;2.30;;;19.60;1.00;;;;;;5052932;28;20455;-71
2021/07/05 09:23:11;;;;;;;57.87;2.50;;;19.60;1.00;;;;;;5052895;28;20548;-72
2021/07/05 09:25:40;;;;;;;58.03;2.40;;;19.40;1.00;;;;;;5053000;28;20472;-72
2021/07/05 09:28:08;;;;;;;57.83;2.40;;;19.30;1.00;;;;;;5053169;28;20452;-71
2021/07/05 09:30:38;;;;;;;58.30;2.40;;;19.40;1.00;;;;;;5053519;28;20685;-71
2021/07/05 09:33:18;;;;;;;58.07;2.70;;;19.20;1.00;;;;;;5052446;28;20546;-71
2021/07/05 09:35:45;;;;;;;57.87;2.30;;;19.10;1.00;;;;;;5052669;28;20566;-72
2021/07/05 09:38:12;;;;;;;57.80;2.60;;;18.90;1.00;;;;;;5053356;28;20527;-71
2021/07/05 09:40:39;;;;;;;58.10;2.50;;;18.70;1.00;;;;;;5053562;28;20452;-71
2021/07/05 09:43:22;;;;;;;58.30;2.70;;;18.50;1.00;;;;;;5052061;28;20507;-71
2021/07/05 09:45:49;;;;;;;58.10;2.60;;;18.40;1.00;;;;;;5052681;28;20876;-71
2021/07/05 09:48:20;;;;;;;57.67;2.40;;;18.40;1.00;;;;;;5052322;28;20451;-72
2021/07/05 09:50:49;;;;;;;58.03;2.50;;;18.40;1.00;;;;;;5052369;28;20447;-71
2021/07/05 09:53:29;;;;;;;58.13;2.50;;;18.30;1.00;;;;;;5051984;28;20471;-72
2021/07/05 09:56:16;;;;;;;58.27;2.50;;;18.30;1.00;;;;;;5052158;28;20581;-72
2021/07/05 09:58:44;;;;;;;58.17;2.30;;;18.30;1.00;;;;;;5052316;28;20980;-72
2021/07/05 10:01:11;;;;;;;57.87;2.50;;;18.30;1.00;;;;;;5054236;28;20474;-71
2021/07/05 10:03:40;;;;;;;57.27;2.50;;;18.40;1.00;;;;;;5053786;28;20472;-71
2021/07/05 10:06:18;;;;;;;58.30;2.50;;;18.40;1.00;;;;;;5052264;28;20444;-71
2021/07/05 10:08:46;;;;;;;58.07;2.37;;;18.30;1.00;;;;;;5041024;28;20970;-71
2021/07/05 10:11:14;;;;;;;57.77;2.47;;;18.30;1.00;;;;;;5045652;28;20451;-71
2021/07/05 10:13:41;;;;;;;58.23;2.30;;;18.30;1.00;;;;;;5052343;28;20546;-72
2021/07/05 10:16:12;;;;;;;57.90;2.40;;;18.20;1.00;;;;;;5052767;28;20575;-70
2021/07/05 10:18:42;;;;;;;57.97;2.40;;;18.30;6.50;;;;;;5044477;28;20480;-70
2021/07/05 10:21:09;;;;;;;58.10;2.40;;;18.30;15.20;;;;;;5045056;28;20452;-70
2021/07/05 10:23:37;;;;;;;57.97;2.50;;;18.30;18.80;;;;;;5053647;28;20577;-70
2021/07/05 10:26:05;;;;;;;58.07;2.40;;;18.20;19.90;;;;;;5053528;28;20542;-70
2021/07/05 10:28:34;;;;;;;57.93;2.40;;;18.20;24.90;;;;;;5053149;28;20506;-70
2021/07/05 10:31:02;;;;;;;58.10;2.30;;;18.20;29.30;;;;;;5053635;28;20825;-70
2021/07/05 10:33:29;;;;;;;58.00;2.30;;;18.10;33.20;;;;;;5054362;28;20551;-70
2021/07/05 10:35:58;;;;;;;58.27;2.50;;;18.10;40.30;;;;;;5053620;28;20483;-70
2021/07/05 10:38:32;;;;;;;58.30;2.40;;;18.10;46.30;;;;;;5053015;28;20542;-70
2021/07/05 10:41:03;;;;;;;58.30;2.50;;;18.10;54.40;;;;;;5053189;28;20458;-70
2021/07/05 10:43:48;;;;;;;59.17;4.13;;;18.20;58.00;;;;;;5051748;28;20555;-70
2021/07/05 10:46:37;;;;;;;58.17;2.70;;;18.20;59.30;;;;;;5052331;28;20826;-70
2021/07/05 10:49:05;;;;;;;58.07;2.60;;;18.30;61.60;;;;;;5054413;28;20509;-70
2021/07/05 10:51:42;;;;;;;59.10;2.80;;;18.30;61.10;;;;;;5055139;28;20448;-70
2021/07/05 10:54:09;;;;;;;57.97;2.60;;;18.40;62.70;;;;;;5055462;28;20476;-70
2021/07/05 10:56:42;;;;;;;57.77;2.20;;;18.50;65.20;;;;;;5055618;28;20521;-69
2021/07/05 10:59:37;;;;;;;57.93;2.30;;;18.60;64.60;;;;;;5055535;28;20454;-70
2021/07/05 11:02:38;;;;;;;58.27;2.33;;;18.80;66.50;;;;;;5053270;28;20550;-70
2021/07/05 11:05:27;;;;;;;58.17;2.57;;;18.90;65.20;;;;;;5055761;28;20499;-69
2021/07/05 11:07:56;;;;;;;58.20;2.50;;;19.10;64.10;;;;;;5055608;28;20511;-70
2021/07/05 11:10:28;;;;;;;57.77;2.70;;;19.10;59.40;;;;;;5055414;28;20447;-69
2021/07/05 11:13:00;;;;;;;57.63;2.60;;;19.30;56.20;;;;;;5054729;28;20444;-69
2021/07/05 11:15:47;;;;;;;57.77;2.40;;;19.30;52.00;;;;;;5055667;28;20454;-70
2021/07/05 11:19:10;;;;;;;57.87;2.37;;;19.30;45.50;;;;;;5056867;28;20813;-70
2021/07/05 11:22:04;;;;;;;57.97;2.40;;;19.30;33.90;;;;;;5054890;28;20540;-70
2021/07/05 11:24:41;;;;;;;58.07;2.70;;;19.30;21.70;;;;;;5056125;28;20478;-70
2021/07/05 11:27:31;;;;;;;57.83;2.60;;;19.30;24.50;;;;;;5055298;28;21022;-70
2021/07/05 11:30:12;;;;;;;57.87;2.50;;;19.50;27.60;;;;;;5055400;28;20503;-70
2021/07/05 11:32:42;;;;;;;57.97;2.40;;;19.50;19.50;;;;;;5054947;28;20518;-70
2021/07/05 11:35:28;;;;;;;57.47;2.20;;;19.50;19.80;;;;;;5055554;28;20575;-70
2021/07/05 11:37:56;;;;;;;57.73;2.30;;;19.40;15.60;;;;;;5054411;28;20504;-70
2021/07/05 11:40:44;;;;;;;57.40;2.40;;;19.30;12.60;;;;;;5055518;28;20447;-70
2021/07/05 11:43:12;;;;;;;58.10;2.60;;;19.30;13.60;;;;;;5054577;28;20480;-69
2021/07/05 11:45:41;;;;;;;57.87;2.30;;;19.30;17.90;;;;;;5055402;28;20534;-70
2021/07/05 11:48:08;;;;;;;57.57;2.23;;;19.20;18.90;;;;;;5055235;28;20439;-70
2021/07/05 11:50:39;;;;;;;57.67;2.23;;;19.20;18.00;;;;;;5053420;28;20476;-70
2021/07/05 11:53:06;;;;;;;57.60;2.33;;;19.10;17.80;;;;;;5049452;28;21067;-70
2021/07/05 11:55:35;;;;;;;58.03;2.23;;;19.00;19.80;;;;;;5034926;28;20752;-70
2021/07/05 11:58:06;;;;;;;57.97;2.60;;;18.90;21.80;;;;;;5034679;28;20905;-70
2021/07/05 12:00:35;;;;;;;57.93;2.50;;;18.80;24.20;;;;;;5034385;28;20896;-70
2021/07/05 12:03:03;;;;;;;58.03;2.30;;;18.80;30.70;;;;;;5034512;28;20472;-70
2021/07/05 12:05:30;;;;;;;58.37;2.50;;;18.80;38.40;;;;;;5034552;28;20491;-70
2021/07/05 12:08:05;;;;;;;58.30;2.50;;;18.80;37.50;;;;;;5034439;28;20441;-70
2021/07/05 12:10:33;;;;;;;57.93;2.40;;;19.00;43.00;;;;;;5034243;28;20942;-70
2021/07/05 12:13:16;;;;;;;58.00;2.40;;;19.20;41.90;;;;;;5033878;28;20449;-70
2021/07/05 12:15:45;;;;;;;57.67;2.50;;;19.60;44.60;;;;;;5034374;28;20532;-70
2021/07/05 12:18:16;;;;;;;58.20;2.80;;;19.90;30.00;;;;;;5034134;28;20577;-70
2021/07/05 12:20:43;;;;;;;58.20;2.40;;;20.20;23.00;;;;;;5034104;28;20812;-70
2021/07/05 12:23:13;;;;;;;57.83;2.17;;;20.40;18.00;;;;;;5044770;28;20488;-68
2021/07/05 12:25:42;;;;;;;57.57;2.37;;;20.60;9.30;;;;;;5054209;28;20491;-70
2021/07/05 12:28:16;;;;;;;58.20;2.40;;;20.80;11.00;;;;;;5054972;28;20500;-70
2021/07/05 12:30:49;;;;;;;57.57;2.50;;;21.00;1.00;;;;;;5054652;28;20461;-70
2021/07/05 12:33:18;;;;;;;57.73;2.20;;;21.20;1.00;;;;;;5054070;28;20969;-70
2021/07/05 12:35:45;;;;;;;58.00;2.50;;;21.20;1.00;;;;;;5054728;28;20460;-70
2021/07/05 12:38:16;;;;;;;57.97;2.27;;;21.30;1.00;;;;;;5054663;28;20483;-69
2021/07/05 12:40:43;;;;;;;58.27;2.50;;;21.40;1.00;;;;;;5054938;28;20459;-70
2021/07/05 12:43:12;;;;;;;57.97;2.57;;;21.30;1.00;;;;;;5054211;28;20550;-70
2021/07/05 12:45:42;;;;;;;57.77;2.40;;;21.30;1.00;;;;;;5054053;28;20542;-70
2021/07/05 12:48:15;;;;;;;57.97;2.57;;;21.40;1.00;;;;;;5053697;28;20454;-70
2021/07/05 12:50:47;;;;;;;58.07;2.43;;;21.70;1.00;;;;;;5053541;28;20444;-69
2021/07/05 12:53:19;;;;;;;58.07;2.80;;;22.30;1.00;;;;;;5052380;28;20551;-70